createdAt,value
2018-09-07T00:01:16.556Z,78.10
2018-09-07T00:03:44.077Z,78.30
2018-09-07T00:06:11.601Z,78.20
2018-09-07T00:08:39.113Z,78.50
2018-09-07T00:11:06.690Z,78.40
2018-09-07T00:13:34.584Z,78.40
2018-09-07T00:16:02.364Z,78.10
2018-09-07T00:18:29.879Z,77.90
2018-09-07T00:20:57.414Z,78.20
2018-09-07T00:23:24.940Z,78.30
2018-09-07T00:25:52.455Z,78.20
2018-09-07T00:28:19.998Z,78.30
2018-09-07T00:30:47.531Z,78.40
2018-09-07T00:33:15.063Z,78.40
2018-09-07T00:35:42.570Z,78.60
2018-09-07T00:38:10.064Z,78.90
2018-09-07T00:40:37.596Z,78.80
2018-09-07T00:43:05.201Z,78.60
2018-09-07T00:45:32.786Z,78.50
2018-09-07T00:48:00.339Z,78.70
2018-09-07T00:50:27.862Z,78.70
2018-09-07T00:52:55.462Z,78.60
2018-09-07T00:55:22.979Z,78.90
2018-09-07T00:57:50.526Z,79.20
2018-09-07T01:00:18.447Z,79.00
2018-09-07T01:02:45.965Z,79.00
2018-09-07T01:05:14.299Z,79.20
2018-09-07T01:07:42.207Z,79.40
2018-09-07T01:10:10.001Z,79.30
2018-09-07T01:12:37.624Z,79.50
2018-09-07T01:15:05.318Z,79.00
2018-09-07T01:17:33.005Z,79.20
2018-09-07T01:20:00.719Z,78.90
2018-09-07T01:22:28.211Z,78.70
2018-09-07T01:24:55.781Z,79.30
2018-09-07T01:27:23.272Z,79.40
2018-09-07T01:29:50.785Z,79.40
2018-09-07T01:32:18.327Z,79.20
2018-09-07T01:34:49.500Z,79.40
2018-09-07T01:37:22.711Z,79.40
2018-09-07T01:39:51.055Z,79.30
2018-09-07T01:42:18.618Z,79.00
2018-09-07T01:44:46.263Z,79.20
2018-09-07T01:47:13.793Z,79.00
2018-09-07T01:49:41.361Z,78.70
2018-09-07T01:52:09.161Z,79.00
2018-09-07T01:54:36.664Z,79.30
2018-09-07T01:57:04.292Z,79.30
2018-09-07T01:59:32.194Z,79.00
2018-09-07T02:01:59.851Z,78.60
2018-09-07T02:04:27.382Z,78.70
2018-09-07T02:06:54.941Z,78.60
2018-09-07T02:09:22.509Z,78.60
2018-09-07T02:11:50.067Z,78.80
2018-09-07T02:14:17.559Z,79.00
2018-09-07T02:16:45.125Z,78.80
2018-09-07T02:19:12.678Z,78.70
2018-09-07T02:21:40.194Z,78.80
2018-09-07T02:24:07.712Z,78.70
2018-09-07T02:26:35.285Z,78.50
2018-09-07T02:29:02.803Z,78.40
2018-09-07T02:31:30.383Z,78.40
2018-09-07T02:33:57.934Z,78.60
2018-09-07T02:36:25.546Z,78.60
2018-09-07T02:38:53.045Z,78.80
2018-09-07T02:41:20.558Z,79.20
2018-09-07T02:43:48.138Z,79.40
2018-09-07T02:46:15.628Z,79.00
2018-09-07T02:48:43.128Z,78.80
2018-09-07T02:51:10.629Z,78.60
2018-09-07T02:53:38.137Z,78.60
2018-09-07T02:56:05.800Z,78.80
2018-09-07T02:58:33.304Z,79.00
2018-09-07T03:01:00.865Z,78.60
2018-09-07T03:03:28.370Z,78.80
2018-09-07T03:05:55.904Z,78.80
2018-09-07T03:08:23.406Z,78.80
2018-09-07T03:10:50.958Z,78.80
2018-09-07T03:13:18.470Z,78.90
2018-09-07T03:15:45.966Z,78.90
2018-09-07T03:18:13.479Z,78.70
2018-09-07T03:20:40.991Z,78.60
2018-09-07T03:23:08.561Z,78.60
2018-09-07T03:25:36.050Z,78.70
2018-09-07T03:28:03.559Z,78.80
2018-09-07T03:30:31.048Z,78.60
2018-09-07T03:32:58.558Z,78.70
2018-09-07T03:35:26.064Z,78.80
2018-09-07T03:37:53.582Z,78.90
2018-09-07T03:40:21.078Z,78.90
2018-09-07T03:42:48.649Z,78.90
2018-09-07T03:45:16.150Z,79.00
2018-09-07T03:47:43.645Z,79.10
2018-09-07T03:50:11.195Z,79.00
2018-09-07T03:52:38.696Z,78.80
2018-09-07T03:55:06.293Z,78.80
2018-09-07T03:57:33.804Z,78.90
2018-09-07T04:00:01.314Z,79.00
2018-09-07T04:02:28.866Z,79.20
2018-09-07T04:04:56.343Z,79.20
2018-09-07T04:07:23.876Z,79.40
2018-09-07T04:09:51.348Z,79.40
2018-09-07T04:12:18.845Z,79.60
2018-09-07T04:14:46.353Z,79.70
2018-09-07T04:17:13.880Z,79.80
2018-09-07T04:19:41.400Z,79.70
2018-09-07T04:22:08.917Z,79.50
2018-09-07T04:24:36.432Z,79.50
2018-09-07T04:27:03.948Z,79.40
2018-09-07T04:29:31.470Z,79.50
2018-09-07T04:31:59.081Z,79.50
2018-09-07T04:34:26.593Z,79.40
2018-09-07T04:36:54.087Z,79.60
2018-09-07T04:39:21.653Z,79.70
2018-09-07T04:41:49.127Z,79.70
2018-09-07T04:44:16.613Z,79.50
2018-09-07T04:46:44.130Z,79.20
2018-09-07T04:49:11.664Z,79.40
2018-09-07T04:51:39.130Z,79.20
2018-09-07T04:54:06.717Z,79.20
2018-09-07T04:56:34.183Z,79.00
2018-09-07T04:59:01.904Z,78.90
2018-09-07T05:01:29.402Z,79.20
2018-09-07T05:03:56.924Z,79.20
2018-09-07T05:06:24.436Z,79.30
2018-09-07T05:08:52.017Z,79.20
2018-09-07T05:11:19.539Z,79.00
2018-09-07T05:13:47.080Z,79.20
2018-09-07T05:16:14.586Z,79.50
2018-09-07T05:18:42.069Z,79.20
2018-09-07T05:21:09.588Z,79.00
2018-09-07T05:23:37.226Z,78.80
2018-09-07T05:26:05.299Z,78.70
2018-09-07T05:28:32.820Z,78.90
2018-09-07T05:31:00.325Z,78.80
2018-09-07T05:33:27.857Z,78.80
2018-09-07T05:35:55.384Z,79.40
2018-09-07T05:38:22.864Z,79.30
2018-09-07T05:40:50.380Z,79.30
2018-09-07T05:43:17.884Z,79.30
2018-09-07T05:45:45.402Z,79.30
2018-09-07T05:48:12.928Z,79.10
2018-09-07T05:50:40.453Z,79.20
2018-09-07T05:53:07.926Z,79.10
2018-09-07T05:55:35.452Z,79.10
2018-09-07T05:58:03.039Z,79.10
2018-09-07T06:00:30.548Z,78.90
2018-09-07T06:02:58.065Z,78.80
2018-09-07T06:05:25.641Z,79.10
2018-09-07T06:07:53.162Z,78.90
2018-09-07T06:10:20.737Z,78.80
2018-09-07T06:12:48.265Z,78.50
2018-09-07T06:15:15.808Z,78.50
2018-09-07T06:17:43.337Z,78.20
2018-09-07T06:20:10.817Z,78.50
2018-09-07T06:22:38.407Z,78.60
2018-09-07T06:25:05.943Z,79.10
2018-09-07T06:27:33.460Z,78.80
2018-09-07T06:30:00.963Z,78.80
2018-09-07T06:32:28.485Z,78.50
2018-09-07T06:34:56.073Z,78.70
2018-09-07T06:37:23.643Z,78.60
2018-09-07T06:39:51.209Z,78.70
2018-09-07T06:42:18.789Z,78.30
2018-09-07T06:44:46.282Z,78.40
2018-09-07T06:47:13.900Z,78.60
2018-09-07T06:49:41.397Z,78.80
2018-09-07T06:52:08.984Z,78.30
2018-09-07T06:54:36.448Z,77.50
2018-09-07T06:57:04.041Z,77.80
2018-09-07T06:59:31.573Z,77.70
2018-09-07T07:01:59.130Z,77.10
2018-09-07T07:04:26.648Z,77.10
2018-09-07T07:06:54.155Z,76.60
2018-09-07T07:09:21.681Z,75.20
2018-09-07T07:11:49.169Z,75.40
2018-09-07T07:14:16.675Z,75.10
2018-09-07T07:16:44.207Z,75.00
2018-09-07T07:19:11.764Z,75.80
2018-09-07T07:21:39.276Z,75.60
2018-09-07T07:24:06.908Z,75.70
2018-09-07T07:26:34.463Z,74.80
2018-09-07T07:29:01.983Z,74.50
2018-09-07T07:31:29.467Z,73.20
2018-09-07T07:33:56.994Z,71.50
2018-09-07T07:36:24.522Z,71.90
2018-09-07T07:38:52.053Z,71.50
2018-09-07T07:41:19.648Z,71.40
2018-09-07T07:43:47.112Z,71.00
2018-09-07T07:46:14.572Z,71.30
2018-09-07T07:48:42.155Z,72.20
2018-09-07T07:51:09.658Z,71.30
2018-09-07T07:53:37.192Z,71.80
2018-09-07T07:56:05.049Z,71.50
2018-09-07T07:58:32.587Z,71.10
2018-09-07T08:01:00.154Z,70.80
2018-09-07T08:03:27.704Z,71.50
2018-09-07T08:05:55.251Z,70.80
2018-09-07T08:08:22.846Z,70.00
2018-09-07T08:10:50.361Z,70.40
2018-09-07T08:13:17.978Z,71.60
2018-09-07T08:15:45.559Z,71.70
2018-09-07T08:18:13.321Z,71.40
2018-09-07T08:20:40.906Z,70.90
2018-09-07T08:23:08.398Z,70.80
2018-09-07T08:25:35.966Z,71.00
2018-09-07T08:28:03.501Z,70.70
2018-09-07T08:30:31.035Z,70.30
2018-09-07T08:32:58.621Z,71.00
2018-09-07T08:35:26.185Z,72.00
2018-09-07T08:37:53.723Z,71.90
2018-09-07T08:40:21.286Z,71.00
2018-09-07T08:42:48.839Z,69.40
2018-09-07T08:45:16.676Z,69.10
2018-09-07T08:47:44.180Z,69.10
2018-09-07T08:50:11.716Z,68.90
2018-09-07T08:52:39.272Z,68.40
2018-09-07T08:55:07.139Z,69.20
2018-09-07T08:57:34.589Z,67.40
2018-09-07T09:00:02.170Z,68.00
2018-09-07T09:02:29.661Z,67.70
2018-09-07T09:04:57.173Z,68.00
2018-09-07T09:07:24.661Z,68.40
2018-09-07T09:09:52.194Z,69.40
2018-09-07T09:12:19.796Z,70.00
2018-09-07T09:14:47.440Z,69.80
2018-09-07T09:17:14.980Z,70.20
2018-09-07T09:19:42.515Z,71.10
2018-09-07T09:22:10.087Z,71.60
2018-09-07T09:24:37.869Z,72.30
2018-09-07T09:27:05.255Z,72.20
2018-09-07T09:29:32.787Z,71.60
2018-09-07T09:32:00.308Z,70.20
2018-09-07T09:34:27.829Z,68.80
2018-09-07T09:36:55.402Z,67.80
2018-09-07T09:39:22.875Z,68.80
2018-09-07T09:41:50.431Z,68.70
2018-09-07T09:44:18.009Z,68.20
2018-09-07T09:46:45.584Z,69.00
2018-09-07T09:49:13.127Z,68.90
2018-09-07T09:51:40.691Z,68.90
2018-09-07T09:54:08.262Z,68.50
2018-09-07T09:56:35.885Z,66.30
2018-09-07T09:59:03.443Z,64.10
2018-09-07T10:01:36.667Z,62.00
2018-09-07T10:04:10.420Z,63.30
2018-09-07T10:06:38.572Z,63.30
2018-09-07T10:09:11.164Z,63.90
2018-09-07T10:11:38.726Z,65.20
2018-09-07T10:14:06.282Z,66.70
2018-09-07T10:16:33.808Z,70.60
2018-09-07T10:19:01.416Z,73.30
2018-09-07T10:21:29.195Z,72.80
2018-09-07T10:23:56.700Z,73.20
2018-09-07T10:26:24.236Z,73.90
2018-09-07T10:28:51.870Z,74.20
2018-09-07T10:31:19.365Z,76.20
2018-09-07T10:33:46.947Z,75.30
2018-09-07T10:36:14.497Z,74.00
2018-09-07T10:38:41.999Z,72.20
2018-09-07T10:41:09.567Z,71.10
2018-09-07T10:43:37.183Z,70.00
2018-09-07T10:46:04.719Z,69.50
2018-09-07T10:48:32.279Z,68.60
2018-09-07T10:50:59.795Z,68.30
2018-09-07T10:53:27.357Z,67.00
2018-09-07T10:55:54.905Z,67.60
2018-09-07T10:58:22.510Z,66.10
2018-09-07T11:00:50.073Z,64.60
2018-09-07T11:03:17.703Z,60.70
2018-09-07T11:05:45.487Z,57.00
2018-09-07T11:08:13.014Z,53.10
2018-09-07T11:10:40.778Z,51.30
2018-09-07T11:13:08.333Z,46.20
2018-09-07T11:15:35.884Z,43.00
2018-09-07T11:18:03.502Z,38.80
2018-09-07T11:20:31.625Z,35.00
2018-09-07T11:22:59.116Z,34.40
2018-09-07T11:25:26.690Z,34.30
2018-09-07T11:27:54.230Z,37.20
2018-09-07T11:30:21.804Z,38.00
2018-09-07T11:32:49.317Z,41.40
2018-09-07T11:35:16.905Z,43.90
2018-09-07T11:37:44.648Z,47.40
2018-09-07T11:40:12.252Z,47.70
2018-09-07T11:42:40.080Z,50.20
2018-09-07T11:45:07.672Z,49.80
2018-09-07T11:47:35.374Z,49.10
2018-09-07T11:50:02.961Z,46.00
2018-09-07T11:52:30.694Z,45.50
2018-09-07T11:54:58.485Z,46.70
2018-09-07T11:57:26.212Z,48.30
2018-09-07T11:59:53.762Z,50.70
2018-09-07T12:02:21.360Z,51.10
2018-09-07T12:04:48.914Z,48.90
2018-09-07T12:07:16.506Z,51.00
2018-09-07T12:09:44.070Z,49.90
2018-09-07T12:12:11.713Z,50.20
2018-09-07T12:14:39.389Z,48.60
2018-09-07T12:17:07.194Z,49.70
2018-09-07T12:19:34.742Z,52.20
2018-09-07T12:22:02.303Z,50.40
2018-09-07T12:24:29.904Z,41.90
2018-09-07T12:27:00.408Z,36.20
2018-09-07T12:29:28.031Z,36.40
2018-09-07T12:31:55.784Z,37.80
2018-09-07T12:34:24.377Z,42.20
2018-09-07T12:36:52.598Z,45.10
2018-09-07T12:39:20.160Z,46.70
2018-09-07T12:41:48.565Z,46.30
2018-09-07T12:44:16.425Z,44.20
2018-09-07T12:46:44.324Z,42.00
2018-09-07T12:49:11.942Z,40.00
2018-09-07T12:51:39.542Z,39.60
2018-09-07T12:54:07.190Z,44.10
2018-09-07T12:56:34.946Z,42.00
2018-09-07T12:59:02.530Z,41.60
2018-09-07T13:01:30.076Z,43.60
2018-09-07T13:03:57.720Z,46.00
2018-09-07T13:06:27.252Z,46.50
2018-09-07T13:08:55.482Z,45.30
2018-09-07T13:11:23.032Z,46.60
2018-09-07T13:13:50.570Z,47.80
2018-09-07T13:16:18.068Z,49.80
2018-09-07T13:18:45.587Z,52.30
2018-09-07T13:21:13.148Z,53.80
2018-09-07T13:23:40.694Z,50.80
2018-09-07T13:26:08.312Z,50.40
2018-09-07T13:28:35.864Z,50.70
2018-09-07T13:31:03.478Z,51.80
2018-09-07T13:33:31.027Z,52.40
2018-09-07T13:35:58.573Z,50.30
2018-09-07T13:38:26.160Z,47.00
2018-09-07T13:40:53.728Z,45.60
2018-09-07T13:43:21.350Z,43.60
2018-09-07T13:45:48.919Z,42.20
2018-09-07T13:48:16.513Z,42.40
2018-09-07T13:50:44.084Z,41.70
2018-09-07T13:53:11.660Z,43.50
2018-09-07T13:55:39.145Z,45.60
2018-09-07T13:58:06.744Z,47.30
2018-09-07T14:00:34.309Z,47.60
2018-09-07T14:03:01.876Z,48.50
2018-09-07T14:05:29.435Z,49.00
2018-09-07T14:07:56.990Z,48.50
2018-09-07T14:10:24.566Z,48.90
2018-09-07T14:12:52.077Z,50.30
2018-09-07T14:15:19.643Z,50.00
2018-09-07T14:17:47.247Z,50.70
2018-09-07T14:20:14.814Z,50.30
2018-09-07T14:22:42.371Z,51.10
2018-09-07T14:25:09.957Z,51.30
2018-09-07T14:27:37.489Z,52.40
2018-09-07T14:30:05.039Z,50.40
2018-09-07T14:32:32.614Z,48.10
2018-09-07T14:35:00.235Z,49.70
2018-09-07T14:37:27.747Z,49.80
2018-09-07T14:39:55.459Z,51.60
2018-09-07T14:42:23.033Z,52.30
2018-09-07T14:44:50.609Z,53.20
2018-09-07T14:47:18.257Z,54.70
2018-09-07T14:49:45.837Z,56.10
2018-09-07T14:52:13.466Z,56.40
2018-09-07T14:54:41.179Z,56.10
2018-09-07T14:57:08.872Z,56.00
2018-09-07T14:59:36.473Z,55.40
2018-09-07T15:02:04.074Z,54.40
2018-09-07T15:04:31.893Z,51.30
2018-09-07T15:06:59.432Z,51.10
2018-09-07T15:09:26.953Z,50.70
2018-09-07T15:11:54.568Z,50.00
2018-09-07T15:14:22.126Z,49.50
2018-09-07T15:16:49.722Z,49.90
2018-09-07T15:19:17.278Z,50.50
2018-09-07T15:21:44.863Z,50.60
2018-09-07T15:24:12.389Z,50.50
2018-09-07T15:26:40.030Z,49.80
2018-09-07T15:29:07.627Z,50.60
2018-09-07T15:31:35.190Z,51.20
2018-09-07T15:34:02.750Z,51.90
2018-09-07T15:36:30.397Z,51.40
2018-09-07T15:38:57.963Z,50.90
2018-09-07T15:41:25.535Z,51.40
2018-09-07T15:43:53.140Z,51.50
2018-09-07T15:46:20.716Z,52.50
2018-09-07T15:48:48.317Z,52.30
2018-09-07T15:51:15.885Z,51.40
2018-09-07T15:53:43.494Z,52.20
2018-09-07T15:56:11.050Z,52.50
2018-09-07T15:58:38.706Z,52.60
2018-09-07T16:01:06.965Z,52.90
2018-09-07T16:03:34.534Z,54.90
2018-09-07T16:06:02.138Z,53.70
2018-09-07T16:08:29.839Z,54.30
2018-09-07T16:10:57.492Z,55.10
2018-09-07T16:13:25.040Z,55.00
2018-09-07T16:15:52.593Z,55.40
2018-09-07T16:18:20.136Z,55.50
2018-09-07T16:20:47.661Z,55.20
2018-09-07T16:23:15.219Z,55.90
2018-09-07T16:25:42.710Z,54.90
2018-09-07T16:28:10.356Z,56.20
2018-09-07T16:30:37.948Z,56.30
2018-09-07T16:33:05.496Z,56.60
2018-09-07T16:35:33.007Z,57.10
2018-09-07T16:38:00.536Z,57.20
2018-09-07T16:40:28.120Z,57.90
2018-09-07T16:42:55.666Z,57.90
2018-09-07T16:45:23.181Z,58.10
2018-09-07T16:47:50.748Z,58.20
2018-09-07T16:50:18.292Z,58.30
2018-09-07T16:52:45.857Z,58.70
2018-09-07T16:55:13.405Z,59.40
2018-09-07T16:57:40.998Z,60.20
2018-09-07T17:00:08.598Z,60.20
2018-09-07T17:02:36.171Z,60.50
2018-09-07T17:05:03.823Z,60.70
2018-09-07T17:07:31.370Z,60.70
2018-09-07T17:09:58.901Z,60.00
2018-09-07T17:12:26.426Z,60.60
2018-09-07T17:14:54.010Z,60.10
2018-09-07T17:17:21.549Z,59.80
2018-09-07T17:19:49.104Z,60.70
2018-09-07T17:22:16.684Z,61.20
2018-09-07T17:24:44.507Z,61.50
2018-09-07T17:27:12.099Z,61.80
2018-09-07T17:29:39.596Z,61.70
2018-09-07T17:32:07.123Z,61.90
2018-09-07T17:34:34.684Z,62.10
2018-09-07T17:37:02.249Z,62.00
2018-09-07T17:39:29.821Z,62.30
2018-09-07T17:41:57.383Z,62.40
2018-09-07T17:44:24.985Z,63.00
2018-09-07T17:46:52.505Z,61.50
2018-09-07T17:49:20.058Z,61.80
2018-09-07T17:51:47.568Z,62.60
2018-09-07T17:54:15.088Z,62.70
2018-09-07T17:56:42.629Z,62.10
2018-09-07T17:59:10.146Z,62.30
2018-09-07T18:01:37.700Z,62.50
2018-09-07T18:04:05.331Z,62.80
2018-09-07T18:06:32.959Z,62.40
2018-09-07T18:09:01.343Z,62.30
2018-09-07T18:11:28.921Z,62.80
2018-09-07T18:13:56.455Z,62.50
2018-09-07T18:16:24.104Z,62.10
2018-09-07T18:18:51.726Z,62.00
2018-09-07T18:21:20.115Z,61.80
2018-09-07T18:23:47.672Z,61.80
2018-09-07T18:26:15.188Z,62.00
2018-09-07T18:28:42.783Z,61.90
2018-09-07T18:31:10.591Z,62.00
2018-09-07T18:33:38.692Z,62.30
2018-09-07T18:36:06.492Z,62.90
2018-09-07T18:38:33.843Z,63.00
2018-09-07T18:41:01.420Z,63.50
2018-09-07T18:43:29.439Z,63.50
2018-09-07T18:45:57.109Z,64.00
2018-09-07T18:48:24.729Z,64.50
2018-09-07T18:50:52.365Z,63.80
2018-09-07T18:53:20.003Z,63.80
2018-09-07T18:55:47.618Z,64.20
2018-09-07T18:58:15.396Z,64.30
2018-09-07T19:00:43.025Z,64.80
2018-09-07T19:03:10.692Z,65.10
2018-09-07T19:05:38.434Z,65.00
2018-09-07T19:08:06.135Z,65.10
2018-09-07T19:10:33.812Z,65.30
2018-09-07T19:13:01.574Z,65.50
2018-09-07T19:15:29.475Z,66.20
2018-09-07T19:17:57.232Z,65.80
2018-09-07T19:20:24.903Z,65.70
2018-09-07T19:22:59.282Z,65.70
2018-09-07T19:25:27.333Z,65.60
2018-09-07T19:27:55.031Z,65.70
2018-09-07T19:30:22.664Z,65.60
2018-09-07T19:32:50.306Z,65.50
2018-09-07T19:35:18.001Z,65.40
2018-09-07T19:37:45.646Z,65.30
2018-09-07T19:40:13.210Z,66.00
2018-09-07T19:42:40.827Z,66.20
2018-09-07T19:45:08.703Z,66.60
2018-09-07T19:47:37.018Z,67.20
2018-09-07T19:50:04.716Z,68.00
2018-09-07T19:52:32.449Z,68.50
2018-09-07T19:55:00.020Z,68.80
2018-09-07T19:57:27.633Z,68.90
2018-09-07T19:59:55.326Z,69.10
2018-09-07T20:02:22.917Z,69.30
2018-09-07T20:04:50.582Z,69.30
2018-09-07T20:07:18.213Z,69.10
2018-09-07T20:09:45.855Z,69.10
2018-09-07T20:12:13.433Z,69.10
2018-09-07T20:14:41.792Z,68.60
2018-09-07T20:17:09.459Z,68.80
2018-09-07T20:19:37.128Z,69.30
2018-09-07T20:22:07.300Z,69.70
2018-09-07T20:24:34.891Z,69.70
2018-09-07T20:27:02.484Z,70.10
2018-09-07T20:29:30.181Z,70.20
2018-09-07T20:31:57.787Z,70.00
2018-09-07T20:34:25.428Z,70.00
2018-09-07T20:36:53.005Z,70.10
2018-09-07T20:39:20.733Z,70.00
2018-09-07T20:41:48.359Z,70.20
2018-09-07T20:44:16.081Z,70.20
2018-09-07T20:46:43.740Z,70.20
2018-09-07T20:49:11.430Z,70.30
2018-09-07T20:51:38.999Z,70.20
2018-09-07T20:54:06.707Z,70.40
2018-09-07T20:56:34.402Z,70.60
2018-09-07T20:59:01.977Z,70.70
2018-09-07T21:01:29.646Z,70.70
2018-09-07T21:03:57.339Z,70.80
2018-09-07T21:06:25.051Z,70.90
2018-09-07T21:08:52.673Z,71.10
2018-09-07T21:11:20.280Z,71.20
2018-09-07T21:13:47.832Z,71.30
2018-09-07T21:16:15.513Z,71.30
2018-09-07T21:18:43.131Z,71.20
2018-09-07T21:21:10.724Z,71.20
2018-09-07T21:23:38.294Z,71.30
2018-09-07T21:26:06.030Z,71.40
2018-09-07T21:28:33.600Z,71.30
2018-09-07T21:31:01.331Z,71.20
2018-09-07T21:33:28.896Z,71.20
2018-09-07T21:35:56.445Z,71.20
2018-09-07T21:38:24.021Z,71.20
2018-09-07T21:40:51.576Z,71.20
2018-09-07T21:43:19.169Z,71.20
2018-09-07T21:45:46.795Z,71.20
2018-09-07T21:48:14.405Z,71.20
2018-09-07T21:50:42.045Z,71.30
2018-09-07T21:53:09.697Z,71.30
2018-09-07T21:55:37.281Z,71.30
2018-09-07T21:58:04.938Z,71.20
2018-09-07T22:00:32.632Z,71.40
2018-09-07T22:03:00.591Z,72.10
2018-09-07T22:05:28.187Z,72.10
2018-09-07T22:08:01.291Z,72.10
2018-09-07T22:10:29.527Z,71.90
2018-09-07T22:12:57.476Z,72.00
2018-09-07T22:15:31.830Z,71.90
2018-09-07T22:17:59.430Z,71.90
2018-09-07T22:20:27.084Z,72.10
2018-09-07T22:22:54.672Z,72.10
2018-09-07T22:25:22.463Z,72.00
2018-09-07T22:27:50.078Z,72.00
2018-09-07T22:30:17.706Z,72.10
2018-09-07T22:32:45.398Z,72.50
2018-09-07T22:35:13.023Z,72.60
2018-09-07T22:37:40.604Z,72.70
2018-09-07T22:40:08.251Z,72.80
2018-09-07T22:42:35.836Z,72.80
2018-09-07T22:45:03.485Z,72.90
2018-09-07T22:47:31.078Z,72.80
2018-09-07T22:49:58.749Z,72.80
2018-09-07T22:52:26.328Z,72.80
2018-09-07T22:54:53.941Z,72.90
2018-09-07T22:57:21.560Z,73.10
2018-09-07T22:59:49.191Z,72.90
2018-09-07T23:02:16.846Z,72.80
2018-09-07T23:04:44.456Z,72.70
2018-09-07T23:07:12.003Z,73.00
2018-09-07T23:09:39.578Z,73.00
2018-09-07T23:12:07.129Z,73.00
2018-09-07T23:14:34.679Z,73.10
2018-09-07T23:17:02.170Z,73.00
2018-09-07T23:19:29.920Z,73.10
2018-09-07T23:21:57.965Z,73.10
2018-09-07T23:24:25.813Z,73.10
2018-09-07T23:26:53.456Z,73.30
2018-09-07T23:29:21.034Z,73.40
2018-09-07T23:31:48.640Z,73.50
2018-09-07T23:34:16.226Z,73.60
2018-09-07T23:36:43.762Z,73.50
2018-09-07T23:39:12.283Z,73.50
2018-09-07T23:41:40.068Z,73.40
2018-09-07T23:44:07.634Z,73.20
2018-09-07T23:46:35.133Z,73.10
2018-09-07T23:49:03.051Z,73.10
2018-09-07T23:51:30.614Z,73.40
2018-09-07T23:53:58.397Z,73.50
2018-09-07T23:56:26.255Z,73.50
2018-09-07T23:58:53.846Z,73.60
